Time;durP1;ratioP1;P1;durP2;ratioP2;P2;SDS_P1;SDS_P2;PMS_P1;PMS_P2;Temp;Humidity;BMP_temperature;BMP_pressure;BME280_temperature;BME280_humidity;BME280_pressure;Samples;Min_cycle;Max_cycle;Signal;HPM_P1;HPM_P2
2022/04/22 00:01:12;;;;;;;10.05;8.95;;;14.10;48.40;;;;;;4933966;29;20032;-44
2022/04/22 00:03:38;;;;;;;11.30;9.90;;;14.00;48.40;;;;;;4936028;29;20028;-44
2022/04/22 00:06:04;;;;;;;11.90;9.35;;;14.10;49.50;;;;;;4919967;29;20035;-45
2022/04/22 00:08:31;;;;;;;11.52;9.40;;;14.10;47.90;;;;;;4935790;29;20047;-45
2022/04/22 00:13:42;;;;;;;10.10;9.03;;;13.90;48.20;;;;;;4917781;29;20067;-44
2022/04/22 00:16:08;;;;;;;10.48;9.48;;;13.90;48.00;;;;;;4917674;29;20327;-47
2022/04/22 00:18:35;;;;;;;10.77;9.40;;;13.80;49.20;;;;;;4934196;29;20035;-45
2022/04/22 00:21:00;;;;;;;15.82;10.25;;;13.80;49.80;;;;;;4929899;29;22232;-44
2022/04/22 00:23:27;;;;;;;10.13;9.10;;;13.80;50.50;;;;;;4918739;29;20090;-44
2022/04/22 00:25:54;;;;;;;11.57;9.85;;;13.70;50.70;;;;;;4919706;29;20024;-45
2022/04/22 00:28:20;;;;;;;11.60;10.45;;;13.80;51.20;;;;;;4935612;29;20503;-44
2022/04/22 00:30:47;;;;;;;11.07;9.98;;;13.70;50.90;;;;;;4936389;29;20035;-45
2022/04/22 00:33:13;;;;;;;11.65;10.45;;;13.60;52.00;;;;;;4935367;29;20490;-44
2022/04/22 00:35:40;;;;;;;11.15;10.05;;;13.60;52.10;;;;;;4936468;29;20027;-46
2022/04/22 00:38:06;;;;;;;13.77;11.50;;;13.60;52.50;;;;;;4936043;29;20086;-44
2022/04/22 00:40:32;;;;;;;11.38;10.27;;;13.50;53.70;;;;;;4935791;29;20039;-45
2022/04/22 00:42:57;;;;;;;12.82;10.65;;;13.60;52.80;;;;;;4933991;29;20039;-44
2022/04/22 00:45:23;;;;;;;12.80;11.50;;;13.50;52.80;;;;;;4935423;29;20399;-44
2022/04/22 00:47:49;;;;;;;13.27;11.18;;;13.50;53.50;;;;;;4935971;29;20047;-47
2022/04/22 00:50:15;;;;;;;13.20;11.85;;;13.60;54.90;;;;;;4935483;29;20035;-45
2022/04/22 00:52:41;;;;;;;13.65;11.85;;;13.40;54.80;;;;;;4936181;29;20454;-44
2022/04/22 00:55:08;;;;;;;12.60;11.40;;;13.40;55.80;;;;;;4935046;29;20075;-44
2022/04/22 00:57:35;;;;;;;13.38;11.98;;;13.40;56.40;;;;;;4936552;29;20461;-44
2022/04/22 01:00:03;;;;;;;12.80;11.38;;;13.40;57.10;;;;;;4933358;29;20081;-44
2022/04/22 01:02:28;;;;;;;12.65;11.35;;;13.40;57.20;;;;;;4917865;29;20027;-45
2022/04/22 01:10:23;;;;;;;13.35;12.05;;;13.30;59.50;;;;;;4935337;29;20042;-44
2022/04/22 01:12:49;;;;;;;14.70;11.98;;;13.30;61.60;;;;;;4935647;29;20046;-44
2022/04/22 01:15:14;;;;;;;13.48;12.05;;;13.30;60.70;;;;;;4935017;29;20102;-44
2022/04/22 01:17:40;;;;;;;13.82;12.32;;;13.30;63.60;;;;;;4935766;29;20032;-44
2022/04/22 01:20:07;;;;;;;14.38;12.88;;;13.20;62.90;;;;;;4934445;29;20027;-44
2022/04/22 01:22:32;;;;;;;16.25;12.02;;;13.20;64.70;;;;;;4935384;29;20074;-44
2022/04/22 01:25:03;;;;;;;13.75;12.38;;;13.30;70.50;;;;;;4934815;29;20067;-44
2022/04/22 01:27:31;;;;;;;14.38;12.98;;;13.20;63.90;;;;;;4934632;29;20378;-44
2022/04/22 01:30:00;;;;;;;13.90;12.32;;;13.20;64.60;;;;;;4933839;29;20020;-44
2022/04/22 01:32:27;;;;;;;14.45;12.95;;;13.30;66.50;;;;;;4933792;29;20119;-44
2022/04/22 01:34:53;;;;;;;14.60;13.07;;;13.10;62.80;;;;;;4933104;29;20032;-44
2022/04/22 01:37:18;;;;;;;15.00;13.40;;;13.10;62.60;;;;;;4921985;29;20386;-44
2022/04/22 01:39:44;;;;;;;16.35;14.15;;;13.30;65.10;;;;;;4931505;29;20058;-44
2022/04/22 01:42:10;;;;;;;13.82;12.35;;;13.20;64.30;;;;;;4932492;29;20039;-44
2022/04/22 01:44:36;;;;;;;13.63;11.93;;;13.30;64.80;;;;;;4923725;29;20035;-44
2022/04/22 01:47:03;;;;;;;18.83;13.25;;;13.20;66.00;;;;;;4917073;29;20435;-44
2022/04/22 01:49:28;;;;;;;14.32;12.63;;;13.20;66.50;;;;;;4922384;29;20478;-44
2022/04/22 01:51:55;;;;;;;14.15;12.75;;;13.20;64.80;;;;;;4934370;29;20036;-44
2022/04/22 01:54:20;;;;;;;14.75;13.27;;;13.30;64.00;;;;;;4933583;29;20031;-44
2022/04/22 01:56:46;;;;;;;14.63;12.80;;;13.20;64.60;;;;;;4917114;29;20039;-43
2022/04/22 01:59:12;;;;;;;15.27;13.40;;;13.10;63.30;;;;;;4933422;29;20421;-43
2022/04/22 02:01:38;;;;;;;16.05;13.98;;;13.00;62.00;;;;;;4933734;29;20067;-44
2022/04/22 02:04:04;;;;;;;15.45;13.25;;;13.00;62.30;;;;;;4916555;29;20165;-44
2022/04/22 02:06:29;;;;;;;16.13;14.15;;;12.90;62.10;;;;;;4933468;29;20059;-43
2022/04/22 02:08:55;;;;;;;14.30;12.80;;;12.90;62.30;;;;;;4933133;29;20055;-44
2022/04/22 02:11:21;;;;;;;15.27;13.52;;;13.00;62.20;;;;;;4935145;29;20020;-44
2022/04/22 02:13:47;;;;;;;13.75;12.38;;;12.90;63.20;;;;;;4933778;29;20509;-47
2022/04/22 02:16:12;;;;;;;15.35;13.77;;;12.80;63.90;;;;;;4934623;29;20094;-44
2022/04/22 02:18:41;;;;;;;16.33;13.63;;;12.80;63.70;;;;;;4934827;29;20115;-44
2022/04/22 02:21:08;;;;;;;16.80;14.45;;;12.90;63.00;;;;;;4934593;29;20036;-44
2022/04/22 02:23:34;;;;;;;14.70;13.27;;;12.80;63.90;;;;;;4934367;29;20389;-44
2022/04/22 02:26:00;;;;;;;15.40;13.77;;;12.90;63.00;;;;;;4933892;29;20028;-45
2022/04/22 02:28:32;;;;;;;14.95;13.43;;;12.90;62.80;;;;;;4934599;29;20113;-44
2022/04/22 02:30:59;;;;;;;15.02;13.52;;;13.00;62.40;;;;;;4934515;29;20035;-44
2022/04/22 02:33:25;;;;;;;16.27;14.07;;;12.90;62.70;;;;;;4938313;29;20063;-45
2022/04/22 02:35:51;;;;;;;15.85;13.85;;;12.90;63.60;;;;;;4936984;29;20390;-44
2022/04/22 02:38:16;;;;;;;15.90;13.98;;;12.60;66.20;;;;;;4938607;29;20032;-44
2022/04/22 02:46:10;;;;;;;14.97;13.37;;;12.70;65.70;;;;;;4937259;29;20121;-45
2022/04/22 02:48:36;;;;;;;18.65;14.90;;;12.70;65.60;;;;;;4938221;29;20501;-43
2022/04/22 02:51:01;;;;;;;16.05;14.25;;;12.70;65.90;;;;;;4937410;29;20529;-44
2022/04/22 02:53:27;;;;;;;17.50;14.45;;;12.70;67.00;;;;;;4938442;29;20028;-45
2022/04/22 02:55:53;;;;;;;16.20;13.00;;;12.70;69.50;;;;;;4937549;29;20123;-47
2022/04/22 02:58:19;;;;;;;15.57;13.77;;;12.70;70.10;;;;;;4937434;29;20024;-43
2022/04/22 03:00:45;;;;;;;15.82;14.18;;;12.60;69.70;;;;;;4937543;29;20023;-46
2022/04/22 03:03:11;;;;;;;16.30;14.52;;;12.60;70.90;;;;;;4936788;29;20114;-45
2022/04/22 03:05:37;;;;;;;16.42;14.68;;;12.50;69.10;;;;;;4937343;29;20036;-46
2022/04/22 03:08:05;;;;;;;16.38;14.65;;;12.50;70.20;;;;;;4937835;29;20043;-46
2022/04/22 03:10:31;;;;;;;15.85;14.13;;;12.50;70.90;;;;;;4937143;29;20022;-45
2022/04/22 03:12:56;;;;;;;19.13;15.60;;;12.50;71.00;;;;;;4937872;29;20034;-44
2022/04/22 03:15:22;;;;;;;17.98;16.08;;;12.50;72.90;;;;;;4936993;29;20035;-44
2022/04/22 03:17:49;;;;;;;16.73;14.80;;;12.60;74.60;;;;;;4937787;29;20036;-45
2022/04/22 03:20:15;;;;;;;16.45;14.75;;;12.70;72.20;;;;;;4936886;29;20015;-46
2022/04/22 03:22:41;;;;;;;17.35;14.25;;;12.70;72.10;;;;;;4921080;29;20122;-45
2022/04/22 03:25:08;;;;;;;20.15;15.65;;;12.70;71.20;;;;;;4936950;29;20103;-44
2022/04/22 03:27:34;;;;;;;17.30;15.40;;;12.70;70.10;;;;;;4920500;29;20044;-48
2022/04/22 03:30:02;;;;;;;18.20;16.02;;;12.60;70.00;;;;;;4937017;29;20026;-46
2022/04/22 03:32:28;;;;;;;17.08;14.70;;;12.70;71.20;;;;;;4920258;29;20138;-47
2022/04/22 03:34:53;;;;;;;15.43;13.82;;;12.70;69.80;;;;;;4919208;29;20123;-46
2022/04/22 03:37:19;;;;;;;17.65;15.90;;;12.70;70.10;;;;;;4920237;29;20027;-44
2022/04/22 03:39:45;;;;;;;18.55;16.17;;;12.70;70.80;;;;;;4936661;29;20477;-44
2022/04/22 03:42:10;;;;;;;17.05;15.30;;;12.70;69.90;;;;;;4937300;28;20024;-44
2022/04/22 03:44:36;;;;;;;18.17;16.27;;;12.60;69.50;;;;;;4937101;29;20028;-47
2022/04/22 03:47:03;;;;;;;18.20;16.15;;;12.60;69.70;;;;;;4937241;29;20446;-44
2022/04/22 03:49:30;;;;;;;20.02;17.35;;;12.60;69.40;;;;;;4936661;29;20036;-45
2022/04/22 03:51:56;;;;;;;20.80;17.92;;;12.50;71.00;;;;;;4937669;29;20043;-44
2022/04/22 03:54:24;;;;;;;19.73;17.13;;;12.70;70.60;;;;;;4936218;29;20032;-47
2022/04/22 03:59:35;;;;;;;20.10;17.05;;;12.70;69.10;;;;;;4935703;29;20046;-45
2022/04/22 04:02:01;;;;;;;22.15;18.15;;;12.70;69.50;;;;;;4936194;29;20051;-45
2022/04/22 04:04:27;;;;;;;23.05;18.73;;;12.70;70.40;;;;;;4919780;29;20051;-44
2022/04/22 04:06:52;;;;;;;24.33;17.08;;;12.70;70.00;;;;;;4936840;29;20035;-47
2022/04/22 04:17:38;;;;;;;22.10;18.65;;;12.50;76.00;;;;;;4937341;29;20130;-45
2022/04/22 04:25:33;;;;;;;19.85;16.30;;;12.40;77.90;;;;;;4936101;29;20042;-44
2022/04/22 04:27:59;;;;;;;20.50;17.05;;;12.40;76.30;;;;;;4935787;29;20047;-44
2022/04/22 04:30:25;;;;;;;21.83;17.85;;;12.40;78.40;;;;;;4935848;29;20028;-44
2022/04/22 04:32:51;;;;;;;20.15;17.95;;;12.40;78.70;;;;;;4936305;29;20417;-44
2022/04/22 04:35:17;;;;;;;19.55;17.38;;;12.40;79.90;;;;;;4935447;29;20466;-44
2022/04/22 04:37:42;;;;;;;20.17;16.83;;;12.40;79.40;;;;;;4936838;29;20035;-44
2022/04/22 04:40:11;;;;;;;20.88;17.77;;;12.30;78.80;;;;;;4935769;29;20094;-45
2022/04/22 04:42:37;;;;;;;18.73;16.48;;;12.30;79.10;;;;;;4936471;29;20038;-44
2022/04/22 04:45:06;;;;;;;20.75;18.05;;;12.40;79.10;;;;;;4935426;29;20032;-44
2022/04/22 04:47:41;;;;;;;18.63;16.55;;;12.40;79.30;;;;;;4936396;29;20338;-45
2022/04/22 04:50:08;;;;;;;20.73;17.73;;;12.40;79.10;;;;;;4935476;29;20438;-44
2022/04/22 04:52:34;;;;;;;20.42;17.55;;;12.50;79.60;;;;;;4917170;29;20039;-44
2022/04/22 04:55:00;;;;;;;19.15;16.98;;;12.50;79.70;;;;;;4917943;29;20023;-45
2022/04/22 04:57:26;;;;;;;19.83;16.05;;;12.50;79.50;;;;;;4919374;29;20035;-45
2022/04/22 04:59:52;;;;;;;21.10;18.50;;;12.50;79.00;;;;;;4935112;29;20023;-45
2022/04/22 05:02:17;;;;;;;19.98;17.80;;;12.50;79.30;;;;;;4935198;29;20446;-44
2022/04/22 05:04:43;;;;;;;22.67;19.23;;;12.40;77.20;;;;;;4935059;29;20856;-43
2022/04/22 05:07:09;;;;;;;21.70;18.63;;;12.50;77.10;;;;;;4918408;29;20031;-45
2022/04/22 05:09:34;;;;;;;23.17;18.88;;;12.50;77.40;;;;;;4917730;29;20040;-44
2022/04/22 05:12:00;;;;;;;22.67;19.23;;;12.50;77.60;;;;;;4935665;29;20038;-44
2022/04/22 05:18:41;;;;;;;23.58;20.13;;;12.50;77.50;;;;;;4933247;29;20409;-43
2022/04/22 05:21:07;;;;;;;25.77;20.92;;;12.40;76.60;;;;;;4933275;29;20043;-44
2022/04/22 05:23:33;;;;;;;24.55;20.40;;;12.40;76.40;;;;;;4935195;29;20050;-44
2022/04/22 05:26:01;;;;;;;25.60;20.58;;;12.50;76.50;;;;;;4935540;29;20042;-44
2022/04/22 05:28:28;;;;;;;26.40;20.95;;;12.50;76.50;;;;;;4934803;29;20122;-44
2022/04/22 05:33:37;;;;;;;24.23;20.88;;;12.60;78.00;;;;;;4934268;29;20062;-44
2022/04/22 05:36:04;;;;;;;29.02;21.17;;;12.60;77.30;;;;;;4935458;29;20390;-44
2022/04/22 05:38:30;;;;;;;23.77;20.67;;;12.70;77.20;;;;;;4934682;29;20038;-44
2022/04/22 05:40:56;;;;;;;24.67;20.27;;;12.70;75.80;;;;;;4935307;29;20028;-44
2022/04/22 05:43:21;;;;;;;26.42;20.27;;;12.80;75.00;;;;;;4917337;29;20032;-45
2022/04/22 05:45:47;;;;;;;27.98;21.85;;;12.80;74.00;;;;;;4935278;29;20396;-45
2022/04/22 05:48:13;;;;;;;28.00;21.63;;;12.80;74.00;;;;;;4931980;29;20047;-47
2022/04/22 05:50:38;;;;;;;24.55;20.52;;;12.80;74.40;;;;;;4935374;29;20087;-45
2022/04/22 05:53:04;;;;;;;26.08;20.27;;;12.70;74.30;;;;;;4933832;29;20039;-46
2022/04/22 05:55:30;;;;;;;21.55;17.70;;;12.70;72.80;;;;;;4934380;29;20096;-44
2022/04/22 05:57:56;;;;;;;24.23;20.05;;;12.80;72.70;;;;;;4917992;29;20039;-44
2022/04/22 06:00:24;;;;;;;25.60;20.02;;;12.80;72.80;;;;;;4932859;29;20032;-45
2022/04/22 06:02:52;;;;;;;25.25;20.30;;;12.80;72.70;;;;;;4935112;29;20039;-44
2022/04/22 06:05:20;;;;;;;23.27;18.85;;;12.90;71.90;;;;;;4934053;29;20028;-45
2022/04/22 06:07:46;;;;;;;25.27;19.38;;;12.90;69.90;;;;;;4935070;29;20470;-46
2022/04/22 06:13:09;;;;;;;22.60;19.38;;;13.00;69.90;;;;;;4922327;29;20410;-45
2022/04/22 06:15:35;;;;;;;22.98;19.98;;;13.00;70.20;;;;;;4934103;29;20490;-45
2022/04/22 06:18:01;;;;;;;21.50;18.60;;;13.00;69.30;;;;;;4934930;29;20035;-46
2022/04/22 06:20:27;;;;;;;24.00;19.30;;;13.10;69.30;;;;;;4933753;29;20533;-48
2022/04/22 06:22:54;;;;;;;24.35;19.50;;;13.20;68.60;;;;;;4916850;29;20191;-48
2022/04/22 06:25:20;;;;;;;25.25;19.27;;;13.10;68.90;;;;;;4934045;29;20039;-45
2022/04/22 06:27:46;;;;;;;27.33;20.02;;;13.20;69.10;;;;;;4934671;29;20036;-48
2022/04/22 06:30:19;;;;;;;21.35;18.63;;;13.10;68.50;;;;;;4933975;29;20103;-46
2022/04/22 06:32:46;;;;;;;23.75;18.52;;;13.20;67.50;;;;;;4934792;29;20544;-45
2022/04/22 06:35:13;;;;;;;21.40;18.80;;;13.20;68.40;;;;;;4933837;29;20510;-46
2022/04/22 06:37:47;;;;;;;20.40;17.73;;;13.20;66.90;;;;;;4920363;29;20028;-47
2022/04/22 06:45:48;;;;;;;23.50;18.00;;;13.20;66.30;;;;;;4934572;29;20520;-44
2022/04/22 06:48:18;;;;;;;22.40;17.70;;;13.20;66.70;;;;;;4934848;29;20083;-44
2022/04/22 06:50:46;;;;;;;22.70;19.67;;;13.20;66.10;;;;;;4933863;29;20031;-44
2022/04/22 06:53:14;;;;;;;22.60;18.90;;;13.20;65.00;;;;;;4933072;29;20104;-44
2022/04/22 06:55:43;;;;;;;20.70;18.45;;;13.30;65.70;;;;;;4931705;29;20350;-43
2022/04/22 06:58:11;;;;;;;22.80;18.70;;;13.30;65.30;;;;;;4914437;29;20051;-45
2022/04/22 07:00:38;;;;;;;27.58;19.77;;;13.40;64.40;;;;;;4925128;29;20556;-43
2022/04/22 07:03:05;;;;;;;22.85;19.15;;;13.40;64.60;;;;;;4929249;29;20040;-44
2022/04/22 07:22:44;;;;;;;23.58;19.80;;;13.20;65.10;;;;;;5158971;27;20527;-45
2022/04/22 07:25:12;;;;;;;26.70;20.05;;;13.70;62.20;;;;;;5109239;28;20364;-44
2022/04/22 07:27:40;;;;;;;25.25;19.75;;;13.80;61.50;;;;;;5108088;28;20024;-46
2022/04/22 07:30:08;;;;;;;24.08;19.15;;;13.80;61.30;;;;;;5108967;28;20107;-45
2022/04/22 07:32:37;;;;;;;25.25;18.92;;;13.70;61.20;;;;;;5103772;28;20029;-47
2022/04/22 07:51:26;;;;;;;22.63;18.88;;;13.90;61.50;;;;;;5146956;27;20786;-46
2022/04/22 07:53:53;;;;;;;24.23;20.50;;;14.20;56.30;;;;;;5130526;27;20084;-45
2022/04/22 07:56:19;;;;;;;24.85;19.88;;;14.30;58.10;;;;;;5129207;27;20026;-46
2022/04/22 07:58:45;;;;;;;26.05;20.58;;;14.30;57.40;;;;;;5129567;27;20019;-46
2022/04/22 08:04:13;;;;;;;22.67;20.00;;;14.20;55.90;;;;;;5121376;28;20502;-46
2022/04/22 08:06:39;;;;;;;23.20;19.17;;;14.10;55.60;;;;;;5129950;27;20020;-45
2022/04/22 08:09:05;;;;;;;23.33;19.45;;;14.30;55.80;;;;;;5121164;27;20012;-45
2022/04/22 08:11:30;;;;;;;22.33;18.83;;;14.30;54.40;;;;;;5109688;28;20055;-45
2022/04/22 08:13:56;;;;;;;22.52;19.65;;;14.40;54.80;;;;;;5113566;28;20391;-46
2022/04/22 08:16:25;;;;;;;27.83;19.98;;;14.50;54.50;;;;;;5128791;27;20023;-46
2022/04/22 08:18:51;;;;;;;22.38;19.95;;;14.60;54.30;;;;;;5128949;27;20111;-45
2022/04/22 08:21:17;;;;;;;22.40;19.95;;;14.40;53.60;;;;;;5124376;27;20028;-45
2022/04/22 08:23:43;;;;;;;22.98;19.52;;;14.40;53.70;;;;;;5110682;28;20034;-44
2022/04/22 08:26:09;;;;;;;28.90;20.15;;;14.50;52.00;;;;;;5119392;27;20031;-45
2022/04/22 08:28:35;;;;;;;22.48;19.50;;;14.50;52.30;;;;;;5109356;28;20036;-45
2022/04/22 08:31:00;;;;;;;23.60;20.77;;;14.60;51.00;;;;;;5129752;27;20569;-45
2022/04/22 08:33:31;;;;;;;24.25;20.25;;;14.70;51.40;;;;;;5129571;27;20027;-46
2022/04/22 08:35:58;;;;;;;25.75;21.48;;;14.70;50.50;;;;;;5109433;27;20027;-45
2022/04/22 08:38:24;;;;;;;23.85;20.67;;;14.70;50.90;;;;;;5109161;28;20058;-44
2022/04/22 08:40:51;;;;;;;25.20;19.90;;;14.70;51.00;;;;;;5111111;28;21027;-44
2022/04/22 08:43:20;;;;;;;25.40;20.92;;;14.90;49.80;;;;;;5129748;27;20478;-46
2022/04/22 08:45:46;;;;;;;20.30;18.17;;;14.90;49.10;;;;;;5111278;27;20491;-45
2022/04/22 08:50:58;;;;;;;25.83;19.90;;;15.10;49.10;;;;;;5118389;28;20108;-48
2022/04/22 08:53:27;;;;;;;27.48;21.83;;;15.20;48.80;;;;;;5097939;28;20453;-44
2022/04/22 08:55:57;;;;;;;25.33;20.30;;;15.30;49.70;;;;;;5113071;28;20024;-44
2022/04/22 08:58:25;;;;;;;23.77;20.33;;;15.40;48.90;;;;;;5114114;28;20122;-44
2022/04/22 09:00:52;;;;;;;29.40;21.45;;;15.50;47.80;;;;;;5096926;28;20048;-45
2022/04/22 09:03:19;;;;;;;23.95;20.38;;;15.40;44.60;;;;;;5095014;28;20027;-45
2022/04/22 09:05:45;;;;;;;22.60;19.92;;;15.40;45.80;;;;;;5111456;28;20120;-46
2022/04/22 09:08:11;;;;;;;24.40;21.73;;;15.50;45.30;;;;;;5115251;28;20035;-45
2022/04/22 09:10:38;;;;;;;26.00;20.10;;;15.50;45.30;;;;;;5098902;28;20039;-44
2022/04/22 09:13:09;;;;;;;28.08;22.30;;;15.50;45.30;;;;;;5094728;28;20024;-47
2022/04/22 09:15:36;;;;;;;27.00;21.65;;;15.70;46.70;;;;;;5109133;28;20030;-45
2022/04/22 09:18:15;;;;;;;25.75;22.17;;;15.60;46.00;;;;;;5114995;28;20020;-48
2022/04/22 09:20:41;;;;;;;24.52;21.30;;;15.80;46.00;;;;;;5099097;28;20042;-45
2022/04/22 09:23:31;;;;;;;26.05;22.95;;;15.60;45.70;;;;;;5094553;28;20074;-47
2022/04/22 09:25:57;;;;;;;26.25;21.90;;;15.70;44.80;;;;;;5111856;28;20059;-47
2022/04/22 09:28:23;;;;;;;27.75;22.70;;;15.80;45.00;;;;;;5114861;28;20024;-45
2022/04/22 09:31:00;;;;;;;30.77;24.05;;;15.90;44.50;;;;;;5098609;28;20398;-46
2022/04/22 09:33:33;;;;;;;28.30;22.63;;;16.00;44.20;;;;;;5094445;28;20020;-46
2022/04/22 09:44:58;;;;;;;28.58;23.90;;;16.40;42.50;;;;;;5094195;28;20113;-45
2022/04/22 09:47:32;;;;;;;30.30;24.23;;;16.50;42.90;;;;;;5092470;28;20032;-45
2022/04/22 09:50:05;;;;;;;27.08;23.35;;;16.50;41.60;;;;;;5101656;28;20556;-45
2022/04/22 09:52:34;;;;;;;29.70;24.00;;;16.40;40.60;;;;;;5113351;28;20059;-47
2022/04/22 09:55:02;;;;;;;27.63;23.38;;;16.50;41.00;;;;;;5113490;28;20019;-45
2022/04/22 09:57:52;;;;;;;29.38;23.17;;;16.50;40.40;;;;;;5114362;28;20152;-45
2022/04/22 10:00:18;;;;;;;28.83;23.98;;;16.60;39.80;;;;;;5113492;27;20031;-46
2022/04/22 10:02:50;;;;;;;30.00;25.20;;;16.60;40.40;;;;;;5113447;28;20023;-47
2022/04/22 10:05:18;;;;;;;30.35;25.00;;;16.70;40.10;;;;;;5103471;28;20476;-48
2022/04/22 10:07:44;;;;;;;30.25;24.58;;;16.70;40.30;;;;;;5092456;28;20481;-46
2022/04/22 10:10:11;;;;;;;31.92;24.50;;;16.80;40.10;;;;;;5093805;28;20047;-46
2022/04/22 10:12:38;;;;;;;33.50;26.90;;;16.80;39.50;;;;;;5093466;28;20055;-47
2022/04/22 10:15:08;;;;;;;31.88;25.52;;;16.80;39.70;;;;;;5101478;28;20031;-48
2022/04/22 10:17:37;;;;;;;28.13;24.25;;;16.80;39.60;;;;;;5114175;28;20016;-44
2022/04/22 10:20:07;;;;;;;33.17;24.63;;;16.90;38.80;;;;;;5112857;28;20036;-46
2022/04/22 10:22:33;;;;;;;28.85;25.58;;;16.90;39.50;;;;;;5113956;28;20020;-45
2022/04/22 10:25:04;;;;;;;26.52;23.35;;;16.90;39.40;;;;;;5108443;28;20081;-47
2022/04/22 10:27:34;;;;;;;27.98;24.67;;;16.90;38.90;;;;;;5093424;28;20027;-47
2022/04/22 10:30:01;;;;;;;28.60;24.67;;;17.00;39.00;;;;;;5099529;28;20480;-46
2022/04/22 10:32:27;;;;;;;28.15;24.63;;;17.20;38.50;;;;;;5108959;28;20555;-49
2022/04/22 10:35:01;;;;;;;30.17;24.55;;;17.00;38.30;;;;;;5112730;28;20508;-47
2022/04/22 10:37:28;;;;;;;25.98;22.95;;;17.20;37.60;;;;;;5113775;28;20114;-47
2022/04/22 10:39:56;;;;;;;33.35;25.10;;;17.10;37.10;;;;;;5096410;28;20043;-50
2022/04/22 10:42:33;;;;;;;28.02;23.60;;;17.30;37.00;;;;;;5113400;28;20038;-50
2022/04/22 10:48:17;;;;;;;27.77;23.45;;;17.40;36.10;;;;;;5113495;28;20041;-46
2022/04/22 10:50:43;;;;;;;28.42;25.40;;;17.40;36.50;;;;;;5111409;27;20036;-46
2022/04/22 10:53:23;;;;;;;32.17;25.40;;;17.40;37.00;;;;;;5112135;28;20110;-45
2022/04/22 10:55:49;;;;;;;26.10;23.30;;;17.40;37.50;;;;;;5103842;28;20373;-46
2022/04/22 10:58:21;;;;;;;29.95;24.17;;;17.60;37.00;;;;;;5107802;28;20515;-45
2022/04/22 11:00:47;;;;;;;31.33;24.83;;;17.70;38.10;;;;;;5101103;28;20051;-45
2022/04/22 11:03:34;;;;;;;28.15;25.15;;;17.70;35.70;;;;;;5092734;28;20020;-45
2022/04/22 11:06:05;;;;;;;29.02;23.75;;;17.80;34.90;;;;;;5105910;28;20019;-45
2022/04/22 11:08:38;;;;;;;28.67;25.30;;;18.00;34.80;;;;;;5098625;28;20059;-45
2022/04/22 11:11:09;;;;;;;28.67;23.77;;;18.00;34.80;;;;;;5106166;28;20051;-45
2022/04/22 11:13:40;;;;;;;26.58;22.73;;;18.00;34.50;;;;;;5112832;28;20073;-44
2022/04/22 11:16:25;;;;;;;24.40;21.83;;;18.00;34.10;;;;;;5112077;28;20031;-45
2022/04/22 11:19:09;;;;;;;;;;;18.20;33.30;;;;;;5113407;28;20028;-45
2022/04/22 11:21:37;;;;;;;28.58;21.35;;;18.20;32.90;;;;;;5110838;28;20400;-46
2022/04/22 11:24:23;;;;;;;25.33;21.63;;;18.10;33.70;;;;;;5112817;28;20059;-44
2022/04/22 11:26:50;;;;;;;22.55;19.20;;;18.30;32.70;;;;;;5111864;28;20023;-45
2022/04/22 11:29:16;;;;;;;20.90;18.70;;;18.30;32.10;;;;;;5111416;28;20377;-45
2022/04/22 11:32:16;;;;;;;21.60;19.30;;;18.40;32.20;;;;;;5093950;28;20031;-45
2022/04/22 11:34:54;;;;;;;25.48;20.88;;;18.40;30.80;;;;;;5092403;28;20477;-46
2022/04/22 11:37:22;;;;;;;25.02;18.20;;;18.30;30.90;;;;;;5097972;28;20032;-45
2022/04/22 11:39:48;;;;;;;21.05;17.95;;;18.20;31.50;;;;;;5112006;28;20401;-46
2022/04/22 11:42:17;;;;;;;20.73;18.42;;;18.30;31.60;;;;;;5111152;28;20031;-45
2022/04/22 11:45:11;;;;;;;22.30;19.05;;;18.30;31.30;;;;;;5111908;28;20151;-45
2022/04/22 11:47:37;;;;;;;26.35;18.35;;;18.30;31.30;;;;;;5111253;28;20100;-47
2022/04/22 11:50:04;;;;;;;20.83;16.88;;;18.30;30.50;;;;;;5111521;28;20504;-49
2022/04/22 11:52:30;;;;;;;21.25;17.73;;;18.20;30.80;;;;;;5112556;28;20469;-47
2022/04/22 11:55:07;;;;;;;17.23;15.40;;;18.30;30.10;;;;;;5110093;28;20042;-50
2022/04/22 11:57:37;;;;;;;17.35;14.25;;;18.30;28.90;;;;;;5110916;28;20027;-51
2022/04/22 12:05:47;;;;;;;20.88;16.05;;;18.10;29.40;;;;;;5100213;28;20510;-52
2022/04/22 12:08:15;;;;;;;18.35;15.18;;;18.20;29.80;;;;;;5112132;28;20042;-53
2022/04/22 12:10:44;;;;;;;17.17;15.13;;;18.30;29.10;;;;;;5103281;28;20043;-51
2022/04/22 12:13:12;;;;;;;16.33;14.63;;;18.40;29.10;;;;;;5092303;28;20028;-48
2022/04/22 12:15:39;;;;;;;17.88;15.95;;;18.40;28.90;;;;;;5099233;28;20090;-44
2022/04/22 12:18:05;;;;;;;15.43;13.82;;;18.50;29.10;;;;;;5111052;28;20106;-40
2022/04/22 12:20:32;;;;;;;14.95;13.38;;;18.50;28.80;;;;;;5111027;28;20043;-42
2022/04/22 12:22:58;;;;;;;14.52;12.35;;;18.50;28.30;;;;;;5112510;28;20026;-46
2022/04/22 12:25:24;;;;;;;15.85;12.65;;;18.50;28.30;;;;;;5105378;28;20028;-43
2022/04/22 12:28:07;;;;;;;13.80;12.32;;;18.50;27.50;;;;;;5100334;28;20107;-42
2022/04/22 12:30:43;;;;;;;15.73;12.88;;;18.60;28.80;;;;;;5105544;28;20024;-43
2022/04/22 12:33:18;;;;;;;14.85;13.20;;;18.70;34.40;;;;;;5101139;28;20024;-43
2022/04/22 12:35:45;;;;;;;;;;;18.70;31.20;;;;;;5109794;28;20110;-44
2022/04/22 12:38:13;;;;;;;15.23;13.32;;;18.60;32.10;;;;;;5102059;28;19908;-44
2022/04/22 12:40:49;;;;;;;16.73;14.95;;;18.70;33.80;;;;;;5101533;28;20096;-44
2022/04/22 12:43:22;;;;;;;19.20;16.27;;;18.60;34.30;;;;;;5112036;28;20025;-44
2022/04/22 12:54:11;;;;;;;11.20;10.10;;;18.70;34.50;;;;;;5102689;28;20043;-44
2022/04/22 12:56:37;;;;;;;12.27;10.05;;;18.80;34.60;;;;;;5113395;28;20559;-44
2022/04/22 12:59:04;;;;;;;11.98;9.93;;;18.80;34.10;;;;;;5115028;28;20058;-44
2022/04/22 13:01:37;;;;;;;10.73;9.15;;;18.70;33.90;;;;;;5114601;28;20102;-44
2022/04/22 13:04:05;;;;;;;12.57;10.20;;;18.70;33.40;;;;;;5113194;28;20028;-43
2022/04/22 13:06:38;;;;;;;10.65;9.55;;;18.70;33.90;;;;;;5115285;28;20392;-46
2022/04/22 13:09:04;;;;;;;9.65;8.70;;;18.90;33.20;;;;;;5114522;28;20032;-45
2022/04/22 13:11:30;;;;;;;10.50;9.40;;;18.90;33.10;;;;;;5115055;28;20027;-43
2022/04/22 13:13:56;;;;;;;11.75;10.23;;;19.00;29.70;;;;;;5113812;28;20027;-44
2022/04/22 13:16:22;;;;;;;11.45;10.38;;;18.90;36.10;;;;;;5115170;28;20493;-43
2022/04/22 13:18:47;;;;;;;11.00;9.90;;;18.70;37.60;;;;;;5113267;28;20054;-43
2022/04/22 13:21:13;;;;;;;11.88;10.55;;;18.80;37.70;;;;;;5115061;28;20035;-44
2022/04/22 13:23:39;;;;;;;12.20;10.60;;;18.80;36.70;;;;;;5097207;28;20027;-44
2022/04/22 13:26:05;;;;;;;12.25;11.05;;;18.90;37.00;;;;;;5093112;28;20032;-46
2022/04/22 13:28:31;;;;;;;10.70;9.65;;;19.10;36.50;;;;;;5107098;28;20099;-45
2022/04/22 13:30:57;;;;;;;11.98;10.55;;;19.00;36.40;;;;;;5104004;28;20396;-44
2022/04/22 13:33:25;;;;;;;10.73;9.63;;;19.00;34.60;;;;;;5097921;28;20032;-43
2022/04/22 13:42:35;;;;;;;10.82;8.88;;;18.90;34.30;;;;;;5102335;28;20035;-44
2022/04/22 13:53:28;;;;;;;9.43;8.40;;;19.10;25.30;;;;;;5094364;28;20039;-44
2022/04/22 13:55:54;;;;;;;9.07;8.00;;;19.10;25.80;;;;;;5109018;28;20384;-44
2022/04/22 13:58:19;;;;;;;11.23;8.60;;;19.30;25.90;;;;;;5107255;28;20024;-44
2022/04/22 14:00:45;;;;;;;10.75;9.52;;;19.30;25.80;;;;;;5092287;28;20064;-45
2022/04/22 14:03:11;;;;;;;10.95;8.77;;;19.40;27.80;;;;;;5111029;28;20039;-46
2022/04/22 14:05:36;;;;;;;10.85;9.75;;;19.30;28.40;;;;;;5114246;28;20045;-44
2022/04/22 14:08:02;;;;;;;12.55;9.27;;;19.10;28.10;;;;;;5107022;28;20030;-58
2022/04/22 14:10:30;;;;;;;9.93;8.93;;;19.20;28.50;;;;;;5109798;28;20035;-43
2022/04/22 14:12:56;;;;;;;10.25;9.15;;;19.10;28.60;;;;;;5108021;28;20015;-39
2022/04/22 14:15:22;;;;;;;10.82;9.68;;;19.10;28.80;;;;;;5109615;27;20091;-40
2022/04/22 14:17:48;;;;;;;11.13;9.93;;;19.20;28.50;;;;;;5112766;28;20460;-40
2022/04/22 14:20:14;;;;;;;11.05;9.95;;;19.00;28.70;;;;;;5114138;28;20176;-39
2022/04/22 14:22:40;;;;;;;12.43;9.32;;;19.20;28.80;;;;;;5112393;28;20031;-40
2022/04/22 14:25:06;;;;;;;10.98;9.93;;;19.30;28.80;;;;;;5113869;28;20032;-40
2022/04/22 14:27:32;;;;;;;11.13;10.02;;;19.40;28.90;;;;;;5113025;28;20028;-39
2022/04/22 14:29:58;;;;;;;10.07;9.07;;;19.30;28.80;;;;;;5113868;27;20028;-40
2022/04/22 14:32:23;;;;;;;12.48;9.65;;;19.50;28.70;;;;;;5112699;28;20023;-40
2022/04/22 14:34:50;;;;;;;9.95;8.95;;;19.70;30.40;;;;;;5113800;28;20127;-40
2022/04/22 14:37:16;;;;;;;9.70;8.73;;;19.90;33.60;;;;;;5110339;28;20027;-40